createdAt,value
2023-03-15T00:02:10.534Z,70.27
2023-03-15T00:04:43.590Z,70.58
2023-03-15T00:07:16.463Z,71.19
2023-03-15T00:09:50.868Z,71.12
2023-03-15T00:12:24.470Z,71.65
2023-03-15T00:14:58.340Z,71.62
2023-03-15T00:17:34.732Z,73.42
2023-03-15T00:20:08.976Z,72.31
2023-03-15T00:22:41.914Z,72.35
2023-03-15T00:25:16.330Z,72.78
2023-03-15T00:27:49.420Z,73.33
2023-03-15T00:30:22.795Z,73.13
2023-03-15T00:32:55.905Z,73.65
2023-03-15T00:35:29.036Z,74.53
2023-03-15T00:38:01.858Z,74.43
2023-03-15T00:40:37.102Z,74.84
2023-03-15T00:43:10.148Z,74.78
2023-03-15T00:45:45.298Z,74.60
2023-03-15T00:48:18.441Z,75.24
2023-03-15T00:50:51.682Z,75.14
2023-03-15T00:53:24.694Z,75.35
2023-03-15T00:56:00.630Z,75.60
2023-03-15T00:58:33.804Z,75.00
2023-03-15T01:01:07.810Z,75.59
2023-03-15T01:03:41.337Z,75.87
2023-03-15T01:06:15.170Z,76.06
2023-03-15T01:08:48.239Z,76.76
2023-03-15T01:11:24.403Z,76.93
2023-03-15T01:13:59.311Z,77.03
2023-03-15T01:16:32.850Z,76.81
2023-03-15T01:19:05.945Z,77.04
2023-03-15T01:21:39.322Z,77.41
2023-03-15T01:24:13.957Z,76.94
2023-03-15T01:26:48.523Z,77.26
2023-03-15T01:29:21.625Z,77.50
2023-03-15T01:31:54.777Z,76.78
2023-03-15T01:34:27.686Z,77.50
2023-03-15T01:37:02.840Z,77.08
2023-03-15T01:39:35.786Z,76.93
2023-03-15T01:42:10.997Z,77.29
2023-03-15T01:44:51.618Z,77.07
2023-03-15T01:47:26.161Z,76.94
2023-03-15T01:50:01.604Z,77.24
2023-03-15T01:52:37.536Z,77.50
2023-03-15T01:55:12.781Z,77.26
2023-03-15T01:57:52.294Z,77.55
2023-03-15T02:00:25.380Z,78.30
2023-03-15T02:03:00.530Z,79.64
2023-03-15T02:05:35.439Z,80.41
2023-03-15T02:08:09.607Z,80.63
2023-03-15T02:10:44.579Z,80.08
2023-03-15T02:13:22.769Z,79.42
2023-03-15T02:15:56.147Z,79.84
2023-03-15T02:18:29.617Z,81.04
2023-03-15T02:21:06.919Z,80.95
2023-03-15T02:23:40.003Z,80.77
2023-03-15T02:26:18.984Z,80.98
2023-03-15T02:28:54.865Z,81.05
2023-03-15T02:31:28.602Z,80.06
2023-03-15T02:34:04.037Z,80.78
2023-03-15T02:36:37.771Z,80.32
2023-03-15T02:39:15.330Z,80.05
2023-03-15T02:41:50.605Z,80.93
2023-03-15T02:44:28.604Z,81.18
2023-03-15T02:47:03.559Z,81.33
2023-03-15T02:49:39.261Z,80.55
2023-03-15T02:52:14.106Z,81.90
2023-03-15T02:54:47.412Z,81.17
2023-03-15T02:57:20.682Z,82.69
2023-03-15T02:59:55.599Z,82.58
2023-03-15T03:02:28.768Z,82.77
2023-03-15T03:05:02.136Z,82.13
2023-03-15T03:07:36.084Z,81.28
2023-03-15T03:10:10.743Z,80.29
2023-03-15T03:12:44.152Z,80.04
2023-03-15T03:15:19.010Z,81.51
2023-03-15T03:17:54.544Z,81.70
2023-03-15T03:20:28.395Z,81.94
2023-03-15T03:23:05.880Z,81.44
2023-03-15T03:25:38.826Z,82.29
2023-03-15T03:28:11.855Z,81.96
2023-03-15T03:30:46.571Z,81.37
2023-03-15T03:33:19.848Z,80.35
2023-03-15T03:35:54.246Z,80.54
2023-03-15T03:38:27.298Z,81.54
2023-03-15T03:41:00.405Z,81.42
2023-03-15T03:43:33.383Z,80.74
2023-03-15T03:46:07.999Z,80.58
2023-03-15T03:48:42.217Z,80.61
2023-03-15T03:51:15.243Z,80.27
2023-03-15T03:53:48.257Z,80.76
2023-03-15T03:56:21.605Z,80.72
2023-03-15T03:58:54.909Z,80.59
2023-03-15T04:01:29.504Z,81.40
2023-03-15T04:04:02.518Z,82.10
2023-03-15T04:06:35.696Z,81.88
2023-03-15T04:09:11.267Z,83.02
2023-03-15T04:11:45.042Z,84.21
2023-03-15T04:14:18.914Z,83.13
2023-03-15T04:16:54.608Z,83.51
2023-03-15T04:19:27.775Z,83.42
2023-03-15T04:22:07.002Z,83.17
2023-03-15T04:24:40.589Z,82.67
2023-03-15T04:27:14.923Z,82.11
2023-03-15T04:29:48.028Z,82.60
2023-03-15T04:32:22.604Z,82.39
2023-03-15T04:34:56.020Z,81.47
2023-03-15T04:37:29.036Z,81.87
2023-03-15T04:40:02.409Z,81.39
2023-03-15T04:42:36.160Z,81.74
2023-03-15T04:45:11.164Z,80.97
2023-03-15T04:47:45.621Z,82.23
2023-03-15T04:50:18.505Z,83.54
2023-03-15T04:52:52.204Z,82.53
2023-03-15T04:55:25.330Z,83.55
2023-03-15T04:57:58.852Z,83.54
2023-03-15T05:00:31.949Z,82.93
2023-03-15T05:03:06.569Z,82.59
2023-03-15T05:05:39.510Z,81.42
2023-03-15T05:08:12.385Z,81.15
2023-03-15T05:10:45.808Z,80.53
2023-03-15T05:13:20.895Z,80.20
2023-03-15T05:15:54.478Z,80.03
2023-03-15T05:18:28.726Z,79.88
2023-03-15T05:21:01.671Z,80.34
2023-03-15T05:23:35.440Z,80.28
2023-03-15T05:26:08.675Z,80.77
2023-03-15T05:28:41.823Z,81.13
2023-03-15T05:31:14.690Z,81.08
2023-03-15T05:33:49.146Z,81.28
2023-03-15T05:36:22.190Z,81.28
2023-03-15T05:38:55.208Z,81.79
2023-03-15T05:41:28.535Z,81.64
2023-03-15T05:44:01.882Z,81.25
2023-03-15T05:46:34.856Z,81.23
2023-03-15T05:49:09.329Z,80.85
2023-03-15T05:51:42.242Z,80.76
2023-03-15T05:54:15.265Z,79.98
2023-03-15T05:56:48.365Z,80.50
2023-03-15T05:59:22.017Z,81.44
2023-03-15T06:01:54.918Z,81.75
2023-03-15T06:04:29.554Z,81.10
2023-03-15T06:07:02.583Z,80.77
2023-03-15T06:09:35.517Z,81.11
2023-03-15T06:12:08.809Z,80.47
2023-03-15T06:14:43.332Z,81.68
2023-03-15T06:17:16.457Z,81.05
2023-03-15T06:19:50.984Z,81.27
2023-03-15T06:22:24.548Z,81.72
2023-03-15T06:24:57.708Z,81.42
2023-03-15T06:27:31.280Z,81.21
2023-03-15T06:30:05.390Z,81.79
2023-03-15T06:32:38.432Z,81.46
2023-03-15T06:35:12.811Z,80.78
2023-03-15T06:37:45.991Z,80.37
2023-03-15T06:40:19.288Z,80.57
2023-03-15T06:42:52.792Z,80.39
2023-03-15T06:45:26.170Z,79.71
2023-03-15T06:47:59.279Z,80.42
2023-03-15T06:50:46.160Z,79.49
2023-03-15T06:53:20.586Z,79.20
2023-03-15T06:55:53.719Z,78.63
2023-03-15T06:58:26.816Z,78.87
2023-03-15T07:01:00.005Z,79.37
2023-03-15T07:03:33.038Z,78.44
2023-03-15T07:06:07.490Z,77.73
2023-03-15T07:08:41.127Z,78.17
2023-03-15T07:11:14.444Z,77.78
2023-03-15T07:13:48.407Z,77.50
2023-03-15T07:16:21.684Z,78.26
2023-03-15T07:18:56.705Z,79.42
2023-03-15T07:21:31.223Z,79.19
2023-03-15T07:24:04.535Z,79.00
2023-03-15T07:26:37.436Z,78.62
2023-03-15T07:29:10.673Z,78.94
2023-03-15T07:31:43.991Z,79.37
2023-03-15T07:34:17.232Z,78.18
2023-03-15T07:36:51.764Z,78.38
2023-03-15T07:39:26.766Z,77.78
2023-03-15T07:42:00.838Z,77.42
2023-03-15T07:44:33.798Z,77.95
2023-03-15T07:47:07.353Z,76.90
2023-03-15T07:49:40.659Z,75.63
2023-03-15T07:52:15.397Z,76.34
2023-03-15T07:54:48.677Z,74.83
2023-03-15T07:57:22.028Z,74.02
2023-03-15T07:59:55.142Z,74.06
2023-03-15T08:02:30.578Z,73.84
2023-03-15T08:05:04.642Z,73.02
2023-03-15T08:07:39.331Z,73.91
2023-03-15T08:10:12.477Z,73.48
2023-03-15T08:12:46.532Z,73.96
2023-03-15T08:15:20.192Z,74.39
2023-03-15T08:17:53.404Z,73.66
2023-03-15T08:20:29.680Z,71.15
2023-03-15T08:23:04.513Z,71.05
2023-03-15T08:25:41.120Z,70.51
2023-03-15T08:28:14.383Z,69.73
2023-03-15T08:30:47.375Z,69.46
2023-03-15T08:33:22.366Z,70.03
2023-03-15T08:35:55.600Z,69.75
2023-03-15T08:38:29.972Z,68.62
2023-03-15T08:41:03.565Z,68.56
2023-03-15T08:43:36.619Z,68.77
2023-03-15T08:46:09.628Z,68.59
2023-03-15T08:48:42.835Z,69.04
2023-03-15T08:51:15.987Z,68.51
2023-03-15T08:53:51.918Z,69.03
2023-03-15T08:56:24.900Z,68.75
2023-03-15T08:58:57.874Z,68.13
2023-03-15T09:01:31.391Z,68.54
2023-03-15T09:04:05.238Z,68.27
2023-03-15T09:06:38.480Z,68.18
2023-03-15T09:09:17.491Z,66.76
2023-03-15T09:11:56.278Z,67.44
2023-03-15T09:14:30.075Z,66.76
2023-03-15T09:17:05.185Z,65.43
2023-03-15T09:19:38.418Z,64.83
2023-03-15T09:22:17.170Z,65.76
2023-03-15T09:24:58.313Z,64.69
2023-03-15T09:27:31.583Z,64.75
2023-03-15T09:30:04.802Z,65.28
2023-03-15T09:32:37.973Z,64.70
2023-03-15T09:35:13.567Z,65.08
2023-03-15T09:37:46.774Z,64.50
2023-03-15T09:40:23.435Z,64.51
2023-03-15T09:43:14.328Z,63.54
2023-03-15T09:45:56.882Z,64.36
2023-03-15T09:48:33.134Z,64.17
2023-03-15T09:51:09.842Z,63.88
2023-03-15T09:53:46.833Z,63.48
2023-03-15T09:56:23.805Z,63.12
2023-03-15T09:58:59.232Z,62.82
2023-03-15T10:01:36.941Z,61.81
2023-03-15T10:04:14.543Z,61.05
2023-03-15T10:06:51.267Z,61.49
2023-03-15T10:09:26.786Z,61.23
2023-03-15T10:12:05.483Z,61.32
2023-03-15T10:14:47.242Z,59.93
2023-03-15T10:17:25.688Z,60.27
2023-03-15T10:20:02.030Z,61.22
2023-03-15T10:22:38.372Z,60.37
2023-03-15T10:25:14.153Z,59.31
2023-03-15T10:27:49.889Z,58.60
2023-03-15T10:30:24.182Z,60.08
2023-03-15T10:32:59.617Z,59.48
2023-03-15T10:35:33.233Z,55.95
2023-03-15T10:38:15.502Z,53.95
2023-03-15T10:40:49.401Z,51.97
2023-03-15T10:43:26.376Z,54.06
2023-03-15T10:46:01.095Z,55.06
2023-03-15T10:48:35.020Z,50.82
2023-03-15T10:51:22.312Z,49.85
2023-03-15T10:53:56.992Z,54.06
2023-03-15T10:56:33.523Z,51.67
2023-03-15T10:59:16.185Z,54.15
2023-03-15T11:01:50.374Z,53.82
2023-03-15T11:04:26.889Z,48.32
2023-03-15T11:07:03.542Z,49.36
2023-03-15T11:09:40.559Z,47.98
2023-03-15T11:12:19.411Z,49.51
2023-03-15T11:14:58.159Z,43.89
2023-03-15T11:17:33.217Z,48.83
2023-03-15T11:20:20.448Z,44.71
2023-03-15T11:22:55.211Z,44.20
2023-03-15T11:25:31.924Z,45.57
2023-03-15T11:28:05.041Z,49.38
2023-03-15T11:30:40.372Z,50.72
2023-03-15T11:33:22.573Z,48.60
2023-03-15T11:35:57.522Z,44.88
2023-03-15T11:38:34.958Z,41.73
2023-03-15T11:41:12.737Z,43.58
2023-03-15T11:43:50.652Z,41.72
2023-03-15T11:46:29.326Z,40.83
2023-03-15T11:49:05.373Z,38.69
2023-03-15T11:51:38.497Z,39.87
2023-03-15T11:54:14.138Z,40.24
2023-03-15T11:56:49.041Z,37.02
2023-03-15T11:59:28.780Z,39.62
2023-03-15T12:02:23.262Z,41.35
2023-03-15T12:05:01.788Z,39.70
2023-03-15T12:07:38.534Z,37.68
2023-03-15T12:10:41.478Z,38.82
2023-03-15T12:13:19.346Z,39.31
2023-03-15T12:15:53.306Z,40.77
2023-03-15T12:18:31.269Z,37.51
2023-03-15T12:21:09.444Z,31.17
2023-03-15T12:23:44.438Z,30.39
2023-03-15T12:26:24.455Z,34.07
2023-03-15T12:29:05.143Z,30.97
2023-03-15T12:31:45.376Z,30.95
2023-03-15T12:34:25.784Z,35.57
2023-03-15T12:37:01.788Z,31.25
2023-03-15T12:39:42.607Z,31.66
2023-03-15T12:42:30.727Z,40.65
2023-03-15T12:45:22.596Z,46.35
2023-03-15T12:48:12.831Z,49.81
2023-03-15T12:50:52.900Z,50.66
2023-03-15T12:53:30.366Z,47.45
2023-03-15T12:56:20.476Z,47.14
2023-03-15T12:58:55.536Z,51.02
2023-03-15T13:01:29.027Z,52.26
2023-03-15T13:04:04.145Z,52.87
2023-03-15T13:06:46.560Z,53.09
2023-03-15T13:09:24.652Z,50.46
2023-03-15T13:12:02.357Z,51.36
2023-03-15T13:14:40.151Z,51.31
2023-03-15T13:17:22.011Z,52.73
2023-03-15T13:19:57.178Z,53.60
2023-03-15T13:22:37.432Z,54.31
2023-03-15T13:25:17.437Z,54.28
2023-03-15T13:27:53.424Z,54.44
2023-03-15T13:30:33.454Z,54.02
2023-03-15T13:33:07.546Z,53.82
2023-03-15T13:35:44.289Z,54.13
2023-03-15T13:38:25.554Z,53.99
2023-03-15T13:40:59.336Z,54.01
2023-03-15T13:43:33.712Z,54.24
2023-03-15T13:46:07.320Z,54.51
2023-03-15T13:48:42.199Z,54.39
2023-03-15T13:51:19.058Z,54.72
2023-03-15T13:53:55.591Z,54.75
2023-03-15T13:56:37.460Z,54.79
2023-03-15T13:59:17.339Z,54.35
2023-03-15T14:01:54.153Z,54.77
2023-03-15T14:04:27.720Z,54.94
2023-03-15T14:07:13.157Z,54.81
2023-03-15T14:09:47.750Z,55.17
2023-03-15T14:12:23.234Z,54.53
2023-03-15T14:14:56.448Z,55.11
2023-03-15T14:17:30.527Z,55.12
2023-03-15T14:20:09.268Z,55.82
2023-03-15T14:22:43.353Z,55.64
2023-03-15T14:25:22.381Z,55.55
2023-03-15T14:27:55.519Z,55.71
2023-03-15T14:30:28.800Z,56.06
2023-03-15T14:33:04.636Z,56.21
2023-03-15T14:35:44.614Z,56.18
2023-03-15T14:38:23.184Z,56.31
2023-03-15T14:41:10.999Z,56.61
2023-03-15T14:43:44.238Z,56.42
2023-03-15T14:46:17.388Z,56.63
2023-03-15T14:48:50.639Z,56.81
2023-03-15T14:51:24.538Z,56.85
2023-03-15T14:53:58.346Z,57.16
2023-03-15T14:56:36.906Z,56.77
2023-03-15T14:59:13.607Z,57.11
2023-03-15T15:01:49.803Z,56.69
2023-03-15T15:04:22.910Z,57.00
2023-03-15T15:06:56.549Z,56.70
2023-03-15T15:09:31.098Z,57.07
2023-03-15T15:12:06.797Z,56.97
2023-03-15T15:14:42.769Z,57.37
2023-03-15T15:17:16.445Z,57.23
2023-03-15T15:19:49.704Z,57.35
2023-03-15T15:22:23.678Z,57.05
2023-03-15T15:24:57.158Z,56.86
2023-03-15T15:27:31.710Z,56.71
2023-03-15T15:30:05.271Z,57.08
2023-03-15T15:32:38.489Z,56.88
2023-03-15T15:35:13.980Z,56.64
2023-03-15T15:37:47.745Z,57.09
2023-03-15T15:40:22.269Z,57.33
2023-03-15T15:42:57.786Z,57.44
2023-03-15T15:45:34.325Z,57.42
2023-03-15T15:48:07.860Z,57.16
2023-03-15T15:50:40.790Z,57.01
2023-03-15T15:53:17.634Z,57.59
2023-03-15T15:55:50.953Z,57.72
2023-03-15T15:58:26.084Z,57.37
2023-03-15T16:00:59.285Z,57.86
2023-03-15T16:03:32.393Z,57.62
2023-03-15T16:06:05.915Z,57.57
2023-03-15T16:08:39.827Z,57.63
2023-03-15T16:11:14.569Z,57.51
2023-03-15T16:13:51.739Z,57.69
2023-03-15T16:16:25.076Z,57.54
2023-03-15T16:18:58.492Z,57.88
2023-03-15T16:21:33.863Z,57.66
2023-03-15T16:24:08.614Z,58.26
2023-03-15T16:26:42.369Z,58.15
2023-03-15T16:29:21.280Z,58.72
2023-03-15T16:31:55.929Z,58.92
2023-03-15T16:34:34.490Z,58.92
2023-03-15T16:37:07.714Z,58.79
2023-03-15T16:39:41.424Z,59.03
2023-03-15T16:42:15.334Z,59.15
2023-03-15T16:44:51.533Z,58.81
2023-03-15T16:47:24.649Z,58.69
2023-03-15T16:49:57.672Z,59.26
2023-03-15T16:52:32.815Z,59.71
2023-03-15T16:55:06.656Z,59.33
2023-03-15T16:57:39.944Z,59.41
2023-03-15T17:00:17.166Z,59.27
2023-03-15T17:02:51.736Z,59.48
2023-03-15T17:05:26.188Z,59.29
2023-03-15T17:08:00.804Z,59.08
2023-03-15T17:10:34.156Z,60.35
2023-03-15T17:13:07.954Z,59.37
2023-03-15T17:15:42.797Z,60.03
2023-03-15T17:18:17.984Z,60.21
2023-03-15T17:20:51.309Z,60.09
2023-03-15T17:23:24.350Z,59.80
2023-03-15T17:25:57.711Z,59.40
2023-03-15T17:28:30.828Z,59.84
2023-03-15T17:31:24.006Z,59.18
2023-03-15T17:33:58.106Z,59.74
2023-03-15T17:36:34.395Z,60.43
2023-03-15T17:39:08.685Z,59.87
2023-03-15T17:41:43.967Z,60.55
2023-03-15T17:44:16.831Z,59.90
2023-03-15T17:46:51.442Z,59.60
2023-03-15T17:49:24.506Z,60.33
2023-03-15T17:51:57.849Z,60.71
2023-03-15T17:54:31.494Z,60.83
2023-03-15T17:57:05.018Z,61.48
2023-03-15T17:59:38.111Z,61.73
2023-03-15T18:02:15.834Z,60.64
2023-03-15T18:04:49.113Z,61.17
2023-03-15T18:07:23.984Z,61.26
2023-03-15T18:09:57.207Z,61.12
2023-03-15T18:12:30.611Z,60.82
2023-03-15T18:15:05.189Z,61.23
2023-03-15T18:17:40.035Z,61.37
2023-03-15T18:20:14.310Z,61.50
2023-03-15T18:22:47.449Z,62.09
2023-03-15T18:25:21.640Z,61.54
2023-03-15T18:27:54.845Z,61.71
2023-03-15T18:30:28.976Z,61.71
2023-03-15T18:33:04.324Z,61.44
2023-03-15T18:35:38.553Z,61.94
2023-03-15T18:38:11.824Z,61.61
2023-03-15T18:40:45.381Z,61.60
2023-03-15T18:43:18.999Z,62.24
2023-03-15T18:45:52.203Z,62.81
2023-03-15T18:48:39.639Z,62.05
2023-03-15T18:51:14.213Z,62.17
2023-03-15T18:53:47.185Z,62.42
2023-03-15T18:56:21.366Z,62.63
2023-03-15T18:58:55.213Z,62.75
2023-03-15T19:01:29.031Z,62.13
2023-03-15T19:04:03.886Z,62.54
2023-03-15T19:06:37.593Z,62.23
2023-03-15T19:09:10.851Z,62.75
2023-03-15T19:11:44.524Z,62.29
2023-03-15T19:14:18.452Z,62.17
2023-03-15T19:16:54.055Z,62.54
2023-03-15T19:19:29.351Z,63.17
2023-03-15T19:22:03.076Z,62.46
2023-03-15T19:24:36.392Z,62.17
2023-03-15T19:27:09.696Z,62.27
2023-03-15T19:29:43.059Z,62.28
2023-03-15T19:32:16.136Z,62.54
2023-03-15T19:34:50.533Z,62.99
2023-03-15T19:37:23.731Z,63.75
2023-03-15T19:39:56.671Z,63.26
2023-03-15T19:42:29.968Z,63.21
2023-03-15T19:45:03.382Z,63.00
2023-03-15T19:47:38.549Z,63.42
2023-03-15T19:50:13.997Z,63.43
2023-03-15T19:52:47.051Z,64.28
2023-03-15T19:55:21.097Z,63.71
2023-03-15T19:57:54.634Z,63.71
2023-03-15T20:00:28.118Z,64.09
2023-03-15T20:03:01.113Z,64.64
2023-03-15T20:05:35.595Z,63.93
2023-03-15T20:08:10.145Z,64.45
2023-03-15T20:10:44.045Z,64.40
2023-03-15T20:13:17.952Z,64.06
2023-03-15T20:15:50.988Z,64.66
2023-03-15T20:18:24.431Z,64.77
2023-03-15T20:21:00.858Z,64.81
2023-03-15T20:23:34.936Z,64.78
2023-03-15T20:26:10.991Z,64.71
2023-03-15T20:28:47.160Z,64.50
2023-03-15T20:31:20.571Z,65.04
2023-03-15T20:33:53.719Z,65.25
2023-03-15T20:36:28.226Z,65.29
2023-03-15T20:39:01.648Z,66.07
2023-03-15T20:41:34.760Z,65.98
2023-03-15T20:44:08.151Z,66.33
2023-03-15T20:46:41.607Z,66.27
2023-03-15T20:49:15.863Z,65.69
2023-03-15T20:51:50.427Z,66.38
2023-03-15T20:54:23.714Z,66.65
2023-03-15T20:56:57.043Z,66.28
2023-03-15T20:59:30.198Z,66.63
2023-03-15T21:02:04.198Z,67.32
2023-03-15T21:04:37.372Z,66.51
2023-03-15T21:07:11.777Z,66.91
2023-03-15T21:09:45.079Z,67.50
2023-03-15T21:12:20.369Z,67.59
2023-03-15T21:14:53.702Z,67.61
2023-03-15T21:17:27.288Z,67.74
2023-03-15T21:20:01.031Z,67.32
2023-03-15T21:22:35.933Z,68.35
2023-03-15T21:25:09.459Z,68.12
2023-03-15T21:27:42.715Z,67.89
2023-03-15T21:30:15.947Z,67.39
2023-03-15T21:32:49.126Z,68.38
2023-03-15T21:35:23.264Z,67.46
2023-03-15T21:37:58.245Z,68.31
2023-03-15T21:40:31.463Z,68.83
2023-03-15T21:43:04.739Z,68.65
2023-03-15T21:45:37.958Z,68.29
2023-03-15T21:48:11.785Z,67.31
2023-03-15T21:50:44.749Z,67.75
2023-03-15T21:53:19.090Z,67.62
2023-03-15T21:55:53.746Z,67.72
2023-03-15T21:58:27.149Z,68.14
2023-03-15T22:01:00.562Z,67.85
2023-03-15T22:03:34.493Z,68.96
2023-03-15T22:06:08.034Z,68.82
2023-03-15T22:08:42.528Z,68.17
2023-03-15T22:11:15.823Z,68.60
2023-03-15T22:13:49.471Z,68.57
2023-03-15T22:16:23.216Z,68.12
2023-03-15T22:18:56.207Z,68.66
2023-03-15T22:21:29.552Z,68.09
2023-03-15T22:24:03.933Z,68.92
2023-03-15T22:26:37.219Z,69.08
2023-03-15T22:29:11.002Z,69.03
2023-03-15T22:31:43.883Z,68.86
2023-03-15T22:34:16.865Z,68.78
2023-03-15T22:36:49.826Z,68.45
2023-03-15T22:39:24.245Z,68.06
2023-03-15T22:41:57.617Z,68.31
2023-03-15T22:44:30.797Z,68.32
2023-03-15T22:47:03.757Z,68.88
2023-03-15T22:49:36.969Z,68.22
2023-03-15T22:52:09.951Z,68.37
2023-03-15T22:54:44.335Z,68.34
2023-03-15T22:57:17.580Z,68.12
2023-03-15T22:59:52.896Z,68.44
2023-03-15T23:02:26.202Z,68.59
2023-03-15T23:04:59.697Z,68.02
2023-03-15T23:07:32.666Z,68.52
2023-03-15T23:10:08.287Z,68.72
2023-03-15T23:12:42.218Z,68.23
2023-03-15T23:15:15.613Z,68.07
2023-03-15T23:17:49.501Z,68.75
2023-03-15T23:20:23.687Z,67.50
2023-03-15T23:22:57.105Z,68.34
2023-03-15T23:25:35.862Z,67.58
2023-03-15T23:28:08.909Z,67.79
2023-03-15T23:30:45.731Z,67.82
2023-03-15T23:33:18.910Z,68.32
2023-03-15T23:35:52.204Z,67.74
2023-03-15T23:38:25.398Z,67.48
2023-03-15T23:41:00.179Z,67.22
2023-03-15T23:43:33.542Z,68.16
2023-03-15T23:46:06.761Z,67.86
2023-03-15T23:48:40.129Z,67.96
2023-03-15T23:51:13.198Z,67.29
2023-03-15T23:53:46.180Z,67.80
2023-03-15T23:56:21.022Z,67.15
2023-03-15T23:58:53.977Z,67.46
